sensor_id;sensor_type;location;lat;lon;timestamp;P1;durP1;ratioP1;P2;durP2;ratioP2
12861;SDS011;6499;66.348;14.134;2023-06-01T00:00:18;2.47;;;0.80;;
12861;SDS011;6499;66.348;14.134;2023-06-01T00:02:45;2.93;;;0.90;;
12861;SDS011;6499;66.348;14.134;2023-06-01T00:05:11;4.20;;;1.10;;
12861;SDS011;6499;66.348;14.134;2023-06-01T00:07:38;2.37;;;0.80;;
12861;SDS011;6499;66.348;14.134;2023-06-01T00:10:05;2.90;;;0.80;;
12861;SDS011;6499;66.348;14.134;2023-06-01T00:12:33;2.47;;;0.70;;
12861;SDS011;6499;66.348;14.134;2023-06-01T00:14:59;2.20;;;0.80;;
12861;SDS011;6499;66.348;14.134;2023-06-01T00:17:26;4.00;;;1.00;;
12861;SDS011;6499;66.348;14.134;2023-06-01T00:19:54;2.47;;;0.90;;
12861;SDS011;6499;66.348;14.134;2023-06-01T00:22:20;3.77;;;0.97;;
12861;SDS011;6499;66.348;14.134;2023-06-01T00:24:49;3.87;;;0.90;;
12861;SDS011;6499;66.348;14.134;2023-06-01T00:27:15;3.60;;;1.00;;
12861;SDS011;6499;66.348;14.134;2023-06-01T00:29:43;2.87;;;1.27;;
12861;SDS011;6499;66.348;14.134;2023-06-01T00:32:10;6.03;;;1.10;;
12861;SDS011;6499;66.348;14.134;2023-06-01T00:34:36;2.60;;;1.00;;
12861;SDS011;6499;66.348;14.134;2023-06-01T00:37:03;3.53;;;1.37;;
12861;SDS011;6499;66.348;14.134;2023-06-01T00:39:29;4.67;;;1.00;;
12861;SDS011;6499;66.348;14.134;2023-06-01T00:41:56;5.80;;;1.33;;
12861;SDS011;6499;66.348;14.134;2023-06-01T00:44:22;5.13;;;1.23;;
12861;SDS011;6499;66.348;14.134;2023-06-01T00:46:51;2.70;;;1.00;;
12861;SDS011;6499;66.348;14.134;2023-06-01T00:49:17;4.67;;;1.10;;
12861;SDS011;6499;66.348;14.134;2023-06-01T00:51:44;2.87;;;1.03;;
12861;SDS011;6499;66.348;14.134;2023-06-01T00:54:10;3.90;;;1.27;;
12861;SDS011;6499;66.348;14.134;2023-06-01T00:56:37;4.10;;;1.20;;
12861;SDS011;6499;66.348;14.134;2023-06-01T00:59:04;4.60;;;1.00;;
12861;SDS011;6499;66.348;14.134;2023-06-01T01:01:31;3.83;;;1.33;;
12861;SDS011;6499;66.348;14.134;2023-06-01T01:03:59;1.97;;;0.80;;
12861;SDS011;6499;66.348;14.134;2023-06-01T01:06:28;2.30;;;1.10;;
12861;SDS011;6499;66.348;14.134;2023-06-01T01:09:00;3.70;;;1.00;;
12861;SDS011;6499;66.348;14.134;2023-06-01T01:11:32;4.70;;;1.20;;
12861;SDS011;6499;66.348;14.134;2023-06-01T01:14:01;3.43;;;1.00;;
12861;SDS011;6499;66.348;14.134;2023-06-01T01:16:30;3.63;;;1.10;;
12861;SDS011;6499;66.348;14.134;2023-06-01T01:19:00;4.30;;;0.80;;
12861;SDS011;6499;66.348;14.134;2023-06-01T01:21:33;2.77;;;0.97;;
12861;SDS011;6499;66.348;14.134;2023-06-01T01:24:07;3.10;;;1.03;;
12861;SDS011;6499;66.348;14.134;2023-06-01T01:26:42;5.93;;;1.10;;
12861;SDS011;6499;66.348;14.134;2023-06-01T01:29:13;1.20;;;0.60;;
12861;SDS011;6499;66.348;14.134;2023-06-01T01:31:40;3.00;;;0.97;;
12861;SDS011;6499;66.348;14.134;2023-06-01T01:34:07;4.40;;;0.90;;
12861;SDS011;6499;66.348;14.134;2023-06-01T01:36:34;4.63;;;0.80;;
12861;SDS011;6499;66.348;14.134;2023-06-01T01:39:01;3.83;;;0.97;;
12861;SDS011;6499;66.348;14.134;2023-06-01T01:41:27;2.83;;;1.10;;
12861;SDS011;6499;66.348;14.134;2023-06-01T01:43:54;3.37;;;1.10;;
12861;SDS011;6499;66.348;14.134;2023-06-01T01:46:24;2.27;;;0.80;;
12861;SDS011;6499;66.348;14.134;2023-06-01T01:48:56;2.40;;;0.70;;
12861;SDS011;6499;66.348;14.134;2023-06-01T01:51:26;4.60;;;1.00;;
12861;SDS011;6499;66.348;14.134;2023-06-01T01:53:53;3.97;;;1.20;;
12861;SDS011;6499;66.348;14.134;2023-06-01T01:56:21;2.97;;;1.00;;
12861;SDS011;6499;66.348;14.134;2023-06-01T01:58:48;2.87;;;0.83;;
12861;SDS011;6499;66.348;14.134;2023-06-01T02:01:15;3.10;;;0.90;;
12861;SDS011;6499;66.348;14.134;2023-06-01T02:03:43;2.73;;;0.80;;
12861;SDS011;6499;66.348;14.134;2023-06-01T02:06:10;1.93;;;0.93;;
12861;SDS011;6499;66.348;14.134;2023-06-01T02:08:36;4.63;;;0.80;;
12861;SDS011;6499;66.348;14.134;2023-06-01T02:11:03;6.33;;;1.20;;
12861;SDS011;6499;66.348;14.134;2023-06-01T02:13:30;2.00;;;0.80;;
12861;SDS011;6499;66.348;14.134;2023-06-01T02:15:58;1.40;;;0.67;;
12861;SDS011;6499;66.348;14.134;2023-06-01T02:18:25;3.87;;;0.70;;
12861;SDS011;6499;66.348;14.134;2023-06-01T02:20:56;2.23;;;0.70;;
12861;SDS011;6499;66.348;14.134;2023-06-01T02:23:22;1.63;;;0.80;;
12861;SDS011;6499;66.348;14.134;2023-06-01T02:25:49;2.80;;;0.90;;
12861;SDS011;6499;66.348;14.134;2023-06-01T02:28:16;3.50;;;1.07;;
12861;SDS011;6499;66.348;14.134;2023-06-01T02:30:43;3.43;;;0.87;;
12861;SDS011;6499;66.348;14.134;2023-06-01T02:33:09;6.50;;;1.50;;
12861;SDS011;6499;66.348;14.134;2023-06-01T02:35:36;2.97;;;0.80;;
12861;SDS011;6499;66.348;14.134;2023-06-01T02:38:04;2.93;;;0.83;;
12861;SDS011;6499;66.348;14.134;2023-06-01T02:40:30;4.97;;;1.20;;
12861;SDS011;6499;66.348;14.134;2023-06-01T02:42:57;4.43;;;0.80;;
12861;SDS011;6499;66.348;14.134;2023-06-01T02:45:23;4.80;;;0.90;;
12861;SDS011;6499;66.348;14.134;2023-06-01T02:47:50;1.47;;;0.80;;
12861;SDS011;6499;66.348;14.134;2023-06-01T02:50:17;3.87;;;1.47;;
12861;SDS011;6499;66.348;14.134;2023-06-01T02:52:43;2.10;;;0.60;;
12861;SDS011;6499;66.348;14.134;2023-06-01T02:55:11;1.77;;;0.80;;
12861;SDS011;6499;66.348;14.134;2023-06-01T02:57:38;1.27;;;0.80;;
12861;SDS011;6499;66.348;14.134;2023-06-01T03:00:05;4.57;;;0.90;;
12861;SDS011;6499;66.348;14.134;2023-06-01T03:02:40;2.67;;;1.47;;
12861;SDS011;6499;66.348;14.134;2023-06-01T03:05:07;1.73;;;0.80;;
12861;SDS011;6499;66.348;14.134;2023-06-01T03:07:34;3.37;;;0.90;;
12861;SDS011;6499;66.348;14.134;2023-06-01T03:10:00;2.47;;;1.00;;
12861;SDS011;6499;66.348;14.134;2023-06-01T03:12:28;3.53;;;0.77;;
12861;SDS011;6499;66.348;14.134;2023-06-01T03:14:54;1.77;;;0.80;;
12861;SDS011;6499;66.348;14.134;2023-06-01T03:17:21;2.87;;;1.03;;
12861;SDS011;6499;66.348;14.134;2023-06-01T03:19:47;3.10;;;0.70;;
12861;SDS011;6499;66.348;14.134;2023-06-01T03:22:14;2.57;;;0.80;;
12861;SDS011;6499;66.348;14.134;2023-06-01T03:24:41;3.10;;;0.80;;
12861;SDS011;6499;66.348;14.134;2023-06-01T03:27:09;3.77;;;0.83;;
12861;SDS011;6499;66.348;14.134;2023-06-01T03:29:37;2.20;;;0.57;;
12861;SDS011;6499;66.348;14.134;2023-06-01T03:32:04;2.80;;;0.90;;
12861;SDS011;6499;66.348;14.134;2023-06-01T03:34:31;2.57;;;0.80;;
12861;SDS011;6499;66.348;14.134;2023-06-01T03:36:57;4.30;;;1.03;;
12861;SDS011;6499;66.348;14.134;2023-06-01T03:39:24;1.73;;;0.80;;
12861;SDS011;6499;66.348;14.134;2023-06-01T03:41:50;3.30;;;0.70;;
12861;SDS011;6499;66.348;14.134;2023-06-01T03:44:17;2.43;;;0.93;;
12861;SDS011;6499;66.348;14.134;2023-06-01T03:46:45;5.10;;;1.10;;
12861;SDS011;6499;66.348;14.134;2023-06-01T03:49:11;3.33;;;1.00;;
12861;SDS011;6499;66.348;14.134;2023-06-01T03:51:38;2.63;;;0.80;;
12861;SDS011;6499;66.348;14.134;2023-06-01T03:54:05;3.00;;;0.97;;
12861;SDS011;6499;66.348;14.134;2023-06-01T03:56:31;2.27;;;0.90;;
12861;SDS011;6499;66.348;14.134;2023-06-01T03:58:57;1.50;;;0.80;;
12861;SDS011;6499;66.348;14.134;2023-06-01T04:01:25;4.83;;;1.10;;
12861;SDS011;6499;66.348;14.134;2023-06-01T04:03:55;3.67;;;1.00;;
12861;SDS011;6499;66.348;14.134;2023-06-01T04:06:22;3.03;;;0.87;;
12861;SDS011;6499;66.348;14.134;2023-06-01T04:08:49;2.37;;;0.80;;
12861;SDS011;6499;66.348;14.134;2023-06-01T04:11:20;2.87;;;0.90;;
12861;SDS011;6499;66.348;14.134;2023-06-01T04:13:47;4.87;;;1.13;;
12861;SDS011;6499;66.348;14.134;2023-06-01T04:16:14;3.50;;;0.83;;
12861;SDS011;6499;66.348;14.134;2023-06-01T04:18:41;5.57;;;1.10;;
12861;SDS011;6499;66.348;14.134;2023-06-01T04:21:09;5.53;;;1.07;;
12861;SDS011;6499;66.348;14.134;2023-06-01T04:23:35;2.83;;;0.93;;
12861;SDS011;6499;66.348;14.134;2023-06-01T04:26:02;2.73;;;0.80;;
12861;SDS011;6499;66.348;14.134;2023-06-01T04:28:30;3.70;;;0.97;;
12861;SDS011;6499;66.348;14.134;2023-06-01T04:30:57;2.70;;;0.80;;
12861;SDS011;6499;66.348;14.134;2023-06-01T04:33:24;3.50;;;1.40;;
12861;SDS011;6499;66.348;14.134;2023-06-01T04:35:50;4.03;;;1.07;;
12861;SDS011;6499;66.348;14.134;2023-06-01T04:38:19;3.73;;;1.10;;
12861;SDS011;6499;66.348;14.134;2023-06-01T04:40:46;4.87;;;2.00;;
12861;SDS011;6499;66.348;14.134;2023-06-01T04:43:13;7.07;;;1.30;;
12861;SDS011;6499;66.348;14.134;2023-06-01T04:45:44;1.20;;;0.90;;
12861;SDS011;6499;66.348;14.134;2023-06-01T04:48:13;5.43;;;1.10;;
12861;SDS011;6499;66.348;14.134;2023-06-01T04:50:39;2.03;;;0.90;;
12861;SDS011;6499;66.348;14.134;2023-06-01T04:53:06;2.83;;;0.87;;
12861;SDS011;6499;66.348;14.134;2023-06-01T04:55:34;3.07;;;1.20;;
12861;SDS011;6499;66.348;14.134;2023-06-01T04:58:00;3.93;;;2.37;;
12861;SDS011;6499;66.348;14.134;2023-06-01T05:00:27;2.70;;;1.10;;
12861;SDS011;6499;66.348;14.134;2023-06-01T05:02:53;2.73;;;0.87;;
12861;SDS011;6499;66.348;14.134;2023-06-01T05:05:20;3.70;;;1.30;;
12861;SDS011;6499;66.348;14.134;2023-06-01T05:07:46;4.53;;;1.60;;
12861;SDS011;6499;66.348;14.134;2023-06-01T05:10:13;4.03;;;1.50;;
12861;SDS011;6499;66.348;14.134;2023-06-01T05:12:42;3.80;;;0.90;;
12861;SDS011;6499;66.348;14.134;2023-06-01T05:15:09;4.40;;;0.87;;
12861;SDS011;6499;66.348;14.134;2023-06-01T05:17:36;4.37;;;1.27;;
12861;SDS011;6499;66.348;14.134;2023-06-01T05:20:03;2.83;;;0.90;;
12861;SDS011;6499;66.348;14.134;2023-06-01T05:22:30;4.20;;;0.80;;
12861;SDS011;6499;66.348;14.134;2023-06-01T05:24:57;3.43;;;1.00;;
12861;SDS011;6499;66.348;14.134;2023-06-01T05:27:23;5.10;;;1.67;;
12861;SDS011;6499;66.348;14.134;2023-06-01T05:29:51;4.60;;;1.30;;
12861;SDS011;6499;66.348;14.134;2023-06-01T05:32:18;2.97;;;1.03;;
12861;SDS011;6499;66.348;14.134;2023-06-01T05:34:44;4.33;;;1.13;;
12861;SDS011;6499;66.348;14.134;2023-06-01T05:37:11;4.90;;;1.20;;
12861;SDS011;6499;66.348;14.134;2023-06-01T05:39:38;4.73;;;1.20;;
12861;SDS011;6499;66.348;14.134;2023-06-01T05:42:04;2.87;;;1.00;;
12861;SDS011;6499;66.348;14.134;2023-06-01T05:44:32;3.67;;;0.90;;
12861;SDS011;6499;66.348;14.134;2023-06-01T05:46:59;4.87;;;1.00;;
12861;SDS011;6499;66.348;14.134;2023-06-01T05:49:26;5.10;;;1.30;;
12861;SDS011;6499;66.348;14.134;2023-06-01T05:51:55;3.70;;;0.87;;
12861;SDS011;6499;66.348;14.134;2023-06-01T05:54:29;2.67;;;1.00;;
12861;SDS011;6499;66.348;14.134;2023-06-01T05:56:55;5.50;;;1.40;;
12861;SDS011;6499;66.348;14.134;2023-06-01T05:59:22;4.13;;;0.80;;
12861;SDS011;6499;66.348;14.134;2023-06-01T06:01:49;4.70;;;0.80;;
12861;SDS011;6499;66.348;14.134;2023-06-01T06:04:17;4.37;;;1.10;;
12861;SDS011;6499;66.348;14.134;2023-06-01T06:06:44;3.70;;;0.83;;
12861;SDS011;6499;66.348;14.134;2023-06-01T06:09:11;3.23;;;1.00;;
12861;SDS011;6499;66.348;14.134;2023-06-01T06:11:41;4.50;;;0.80;;
12861;SDS011;6499;66.348;14.134;2023-06-01T06:14:08;4.97;;;1.03;;
12861;SDS011;6499;66.348;14.134;2023-06-01T06:16:36;3.13;;;0.73;;
12861;SDS011;6499;66.348;14.134;2023-06-01T06:19:02;2.60;;;0.60;;
12861;SDS011;6499;66.348;14.134;2023-06-01T06:21:30;1.00;;;0.50;;
12861;SDS011;6499;66.348;14.134;2023-06-01T06:23:57;1.87;;;0.83;;
12861;SDS011;6499;66.348;14.134;2023-06-01T06:26:24;3.67;;;1.00;;
12861;SDS011;6499;66.348;14.134;2023-06-01T06:28:51;3.07;;;0.67;;
12861;SDS011;6499;66.348;14.134;2023-06-01T06:31:18;6.63;;;1.00;;
12861;SDS011;6499;66.348;14.134;2023-06-01T06:33:45;3.00;;;1.43;;
12861;SDS011;6499;66.348;14.134;2023-06-01T06:36:11;3.23;;;0.80;;
12861;SDS011;6499;66.348;14.134;2023-06-01T06:38:40;2.87;;;0.80;;
12861;SDS011;6499;66.348;14.134;2023-06-01T06:41:06;2.93;;;0.80;;
12861;SDS011;6499;66.348;14.134;2023-06-01T06:43:33;5.70;;;1.37;;
12861;SDS011;6499;66.348;14.134;2023-06-01T06:45:59;2.40;;;0.93;;
12861;SDS011;6499;66.348;14.134;2023-06-01T06:48:26;5.67;;;1.27;;
12861;SDS011;6499;66.348;14.134;2023-06-01T06:50:52;6.03;;;1.20;;
12861;SDS011;6499;66.348;14.134;2023-06-01T06:53:19;5.53;;;1.20;;
12861;SDS011;6499;66.348;14.134;2023-06-01T06:55:47;3.33;;;1.23;;
12861;SDS011;6499;66.348;14.134;2023-06-01T06:58:13;5.67;;;1.37;;
12861;SDS011;6499;66.348;14.134;2023-06-01T07:00:40;6.20;;;1.20;;
12861;SDS011;6499;66.348;14.134;2023-06-01T07:03:06;5.83;;;1.10;;
12861;SDS011;6499;66.348;14.134;2023-06-01T07:05:34;4.50;;;1.33;;
12861;SDS011;6499;66.348;14.134;2023-06-01T07:08:00;4.43;;;1.47;;
12861;SDS011;6499;66.348;14.134;2023-06-01T07:10:27;7.87;;;1.33;;
12861;SDS011;6499;66.348;14.134;2023-06-01T07:12:55;5.10;;;1.10;;
12861;SDS011;6499;66.348;14.134;2023-06-01T07:15:21;2.80;;;0.80;;
12861;SDS011;6499;66.348;14.134;2023-06-01T07:17:48;3.00;;;1.00;;
12861;SDS011;6499;66.348;14.134;2023-06-01T07:20:14;7.63;;;1.07;;
12861;SDS011;6499;66.348;14.134;2023-06-01T07:22:41;3.33;;;0.90;;
12861;SDS011;6499;66.348;14.134;2023-06-01T07:25:08;3.40;;;0.73;;
12861;SDS011;6499;66.348;14.134;2023-06-01T07:27:35;3.43;;;0.80;;
12861;SDS011;6499;66.348;14.134;2023-06-01T07:30:03;1.83;;;0.80;;
12861;SDS011;6499;66.348;14.134;2023-06-01T07:32:30;1.63;;;0.57;;
12861;SDS011;6499;66.348;14.134;2023-06-01T07:34:56;3.87;;;0.67;;
12861;SDS011;6499;66.348;14.134;2023-06-01T07:37:24;1.23;;;0.47;;
12861;SDS011;6499;66.348;14.134;2023-06-01T07:39:52;3.60;;;0.60;;
12861;SDS011;6499;66.348;14.134;2023-06-01T07:42:18;2.57;;;0.90;;
12861;SDS011;6499;66.348;14.134;2023-06-01T07:44:45;0.70;;;0.40;;
12861;SDS011;6499;66.348;14.134;2023-06-01T07:47:13;1.63;;;0.70;;
12861;SDS011;6499;66.348;14.134;2023-06-01T07:49:40;4.07;;;0.53;;
12861;SDS011;6499;66.348;14.134;2023-06-01T07:52:06;2.97;;;0.73;;
12861;SDS011;6499;66.348;14.134;2023-06-01T07:54:34;2.30;;;0.57;;
12861;SDS011;6499;66.348;14.134;2023-06-01T07:57:01;3.13;;;0.80;;
12861;SDS011;6499;66.348;14.134;2023-06-01T07:59:29;2.60;;;1.00;;
12861;SDS011;6499;66.348;14.134;2023-06-01T08:01:55;2.43;;;0.70;;
12861;SDS011;6499;66.348;14.134;2023-06-01T08:04:23;2.27;;;0.90;;
12861;SDS011;6499;66.348;14.134;2023-06-01T08:06:51;3.33;;;0.97;;
12861;SDS011;6499;66.348;14.134;2023-06-01T08:09:18;2.37;;;1.20;;
12861;SDS011;6499;66.348;14.134;2023-06-01T08:11:45;3.07;;;1.20;;
12861;SDS011;6499;66.348;14.134;2023-06-01T08:14:11;2.13;;;0.83;;
12861;SDS011;6499;66.348;14.134;2023-06-01T08:16:38;4.37;;;0.93;;
12861;SDS011;6499;66.348;14.134;2023-06-01T08:19:04;2.30;;;0.70;;
12861;SDS011;6499;66.348;14.134;2023-06-01T08:21:35;2.23;;;0.70;;
12861;SDS011;6499;66.348;14.134;2023-06-01T08:24:02;2.90;;;0.80;;
12861;SDS011;6499;66.348;14.134;2023-06-01T08:26:28;1.47;;;0.70;;
12861;SDS011;6499;66.348;14.134;2023-06-01T08:28:55;1.30;;;0.80;;
12861;SDS011;6499;66.348;14.134;2023-06-01T08:31:22;2.30;;;1.00;;
12861;SDS011;6499;66.348;14.134;2023-06-01T08:33:49;3.10;;;0.87;;
12861;SDS011;6499;66.348;14.134;2023-06-01T08:36:16;2.67;;;0.93;;
12861;SDS011;6499;66.348;14.134;2023-06-01T08:38:44;4.33;;;1.43;;
12861;SDS011;6499;66.348;14.134;2023-06-01T08:41:17;5.37;;;0.93;;
12861;SDS011;6499;66.348;14.134;2023-06-01T08:43:45;2.37;;;0.93;;
12861;SDS011;6499;66.348;14.134;2023-06-01T08:46:16;3.60;;;1.40;;
12861;SDS011;6499;66.348;14.134;2023-06-01T08:48:44;2.03;;;0.87;;
12861;SDS011;6499;66.348;14.134;2023-06-01T08:51:10;2.37;;;0.80;;
12861;SDS011;6499;66.348;14.134;2023-06-01T08:53:37;2.33;;;0.70;;
12861;SDS011;6499;66.348;14.134;2023-06-01T08:56:09;3.23;;;0.80;;
12861;SDS011;6499;66.348;14.134;2023-06-01T08:58:35;2.57;;;0.70;;
12861;SDS011;6499;66.348;14.134;2023-06-01T09:01:02;2.70;;;1.00;;
12861;SDS011;6499;66.348;14.134;2023-06-01T09:03:29;1.43;;;0.70;;
12861;SDS011;6499;66.348;14.134;2023-06-01T09:05:55;2.17;;;0.83;;
12861;SDS011;6499;66.348;14.134;2023-06-01T09:08:22;1.47;;;0.70;;
12861;SDS011;6499;66.348;14.134;2023-06-01T09:10:49;4.27;;;1.10;;
12861;SDS011;6499;66.348;14.134;2023-06-01T09:15:59;1.43;;;0.60;;
12861;SDS011;6499;66.348;14.134;2023-06-01T09:18:25;2.50;;;0.80;;
12861;SDS011;6499;66.348;14.134;2023-06-01T09:20:52;2.60;;;0.80;;
12861;SDS011;6499;66.348;14.134;2023-06-01T09:23:25;3.07;;;1.00;;
12861;SDS011;6499;66.348;14.134;2023-06-01T09:26:05;2.10;;;0.80;;
12861;SDS011;6499;66.348;14.134;2023-06-01T09:31:23;3.63;;;0.90;;
12861;SDS011;6499;66.348;14.134;2023-06-01T09:34:00;2.63;;;0.60;;
12861;SDS011;6499;66.348;14.134;2023-06-01T09:36:27;2.17;;;0.70;;
12861;SDS011;6499;66.348;14.134;2023-06-01T09:38:59;2.83;;;0.87;;
12861;SDS011;6499;66.348;14.134;2023-06-01T09:41:25;3.67;;;0.90;;
12861;SDS011;6499;66.348;14.134;2023-06-01T09:43:56;3.23;;;0.90;;
12861;SDS011;6499;66.348;14.134;2023-06-01T09:46:24;2.10;;;1.00;;
12861;SDS011;6499;66.348;14.134;2023-06-01T09:48:58;4.67;;;0.90;;
12861;SDS011;6499;66.348;14.134;2023-06-01T09:51:30;2.70;;;0.90;;
12861;SDS011;6499;66.348;14.134;2023-06-01T09:53:57;2.10;;;0.83;;
12861;SDS011;6499;66.348;14.134;2023-06-01T09:56:23;2.87;;;0.70;;
12861;SDS011;6499;66.348;14.134;2023-06-01T09:58:55;1.77;;;0.87;;
12861;SDS011;6499;66.348;14.134;2023-06-01T10:01:24;1.80;;;0.80;;
12861;SDS011;6499;66.348;14.134;2023-06-01T10:03:51;2.00;;;0.87;;
12861;SDS011;6499;66.348;14.134;2023-06-01T10:06:18;3.83;;;0.90;;
12861;SDS011;6499;66.348;14.134;2023-06-01T10:08:45;4.23;;;0.97;;
12861;SDS011;6499;66.348;14.134;2023-06-01T10:11:12;2.17;;;0.80;;
12861;SDS011;6499;66.348;14.134;2023-06-01T10:13:39;2.67;;;0.70;;
12861;SDS011;6499;66.348;14.134;2023-06-01T10:16:06;1.70;;;0.90;;
12861;SDS011;6499;66.348;14.134;2023-06-01T10:18:34;1.73;;;0.70;;
12861;SDS011;6499;66.348;14.134;2023-06-01T10:23:32;1.67;;;0.80;;
12861;SDS011;6499;66.348;14.134;2023-06-01T10:25:59;3.77;;;0.80;;
12861;SDS011;6499;66.348;14.134;2023-06-01T10:28:31;3.97;;;0.97;;
12861;SDS011;6499;66.348;14.134;2023-06-01T10:33:53;1.73;;;0.60;;
12861;SDS011;6499;66.348;14.134;2023-06-01T10:36:19;2.20;;;0.73;;
12861;SDS011;6499;66.348;14.134;2023-06-01T10:38:46;1.37;;;0.50;;
12861;SDS011;6499;66.348;14.134;2023-06-01T10:41:25;1.60;;;0.80;;
12861;SDS011;6499;66.348;14.134;2023-06-01T10:43:53;2.43;;;0.70;;
12861;SDS011;6499;66.348;14.134;2023-06-01T10:46:36;1.37;;;0.70;;
12861;SDS011;6499;66.348;14.134;2023-06-01T10:49:04;3.40;;;1.00;;
12861;SDS011;6499;66.348;14.134;2023-06-01T10:51:36;2.57;;;0.90;;
12861;SDS011;6499;66.348;14.134;2023-06-01T10:54:23;1.40;;;0.70;;
12861;SDS011;6499;66.348;14.134;2023-06-01T10:59:31;3.70;;;1.03;;
12861;SDS011;6499;66.348;14.134;2023-06-01T11:01:58;1.73;;;0.80;;
12861;SDS011;6499;66.348;14.134;2023-06-01T11:04:36;1.80;;;0.77;;
12861;SDS011;6499;66.348;14.134;2023-06-01T11:09:45;1.00;;;0.50;;
12861;SDS011;6499;66.348;14.134;2023-06-01T11:12:11;1.53;;;0.50;;
12861;SDS011;6499;66.348;14.134;2023-06-01T11:14:38;0.93;;;0.60;;
12861;SDS011;6499;66.348;14.134;2023-06-01T11:17:29;1.47;;;0.60;;
12861;SDS011;6499;66.348;14.134;2023-06-01T11:20:00;1.53;;;0.70;;
12861;SDS011;6499;66.348;14.134;2023-06-01T11:22:36;1.50;;;0.40;;
12861;SDS011;6499;66.348;14.134;2023-06-01T11:25:05;1.57;;;0.60;;
12861;SDS011;6499;66.348;14.134;2023-06-01T11:27:33;2.77;;;0.57;;
12861;SDS011;6499;66.348;14.134;2023-06-01T11:30:01;1.90;;;0.73;;
12861;SDS011;6499;66.348;14.134;2023-06-01T11:32:28;1.57;;;0.70;;
12861;SDS011;6499;66.348;14.134;2023-06-01T11:34:54;1.33;;;0.70;;
12861;SDS011;6499;66.348;14.134;2023-06-01T11:37:23;1.57;;;0.70;;
12861;SDS011;6499;66.348;14.134;2023-06-01T11:39:51;2.90;;;0.70;;
12861;SDS011;6499;66.348;14.134;2023-06-01T11:42:17;1.10;;;0.63;;
12861;SDS011;6499;66.348;14.134;2023-06-01T11:44:45;0.53;;;0.50;;
12861;SDS011;6499;66.348;14.134;2023-06-01T11:47:12;1.00;;;0.60;;
12861;SDS011;6499;66.348;14.134;2023-06-01T11:49:39;3.13;;;0.50;;
12861;SDS011;6499;66.348;14.134;2023-06-01T11:52:08;0.90;;;0.53;;
12861;SDS011;6499;66.348;14.134;2023-06-01T11:54:36;2.05;;;0.60;;
12861;SDS011;6499;66.348;14.134;2023-06-01T11:57:03;0.77;;;0.50;;
12861;SDS011;6499;66.348;14.134;2023-06-01T11:59:36;1.53;;;0.63;;
12861;SDS011;6499;66.348;14.134;2023-06-01T12:02:03;2.57;;;0.60;;
12861;SDS011;6499;66.348;14.134;2023-06-01T12:04:29;1.13;;;0.70;;
12861;SDS011;6499;66.348;14.134;2023-06-01T12:07:03;3.47;;;0.80;;
12861;SDS011;6499;66.348;14.134;2023-06-01T12:09:30;1.53;;;0.50;;
12861;SDS011;6499;66.348;14.134;2023-06-01T12:11:58;2.13;;;0.90;;
12861;SDS011;6499;66.348;14.134;2023-06-01T12:14:25;0.87;;;0.50;;
12861;SDS011;6499;66.348;14.134;2023-06-01T12:16:53;2.07;;;0.80;;
12861;SDS011;6499;66.348;14.134;2023-06-01T12:19:19;2.63;;;1.00;;
12861;SDS011;6499;66.348;14.134;2023-06-01T12:21:47;1.13;;;0.47;;
12861;SDS011;6499;66.348;14.134;2023-06-01T12:24:14;1.80;;;0.60;;
12861;SDS011;6499;66.348;14.134;2023-06-01T12:26:41;1.30;;;0.80;;
12861;SDS011;6499;66.348;14.134;2023-06-01T12:29:09;2.50;;;0.77;;
12861;SDS011;6499;66.348;14.134;2023-06-01T12:31:36;0.70;;;0.50;;
12861;SDS011;6499;66.348;14.134;2023-06-01T12:34:02;1.43;;;0.57;;
12861;SDS011;6499;66.348;14.134;2023-06-01T12:36:30;2.40;;;0.63;;
12861;SDS011;6499;66.348;14.134;2023-06-01T12:38:57;3.10;;;0.70;;
12861;SDS011;6499;66.348;14.134;2023-06-01T12:41:25;2.10;;;0.50;;
12861;SDS011;6499;66.348;14.134;2023-06-01T12:43:51;0.80;;;0.50;;
12861;SDS011;6499;66.348;14.134;2023-06-01T12:46:24;0.80;;;0.40;;
12861;SDS011;6499;66.348;14.134;2023-06-01T12:48:51;1.20;;;0.40;;
12861;SDS011;6499;66.348;14.134;2023-06-01T12:51:18;0.90;;;0.40;;
12861;SDS011;6499;66.348;14.134;2023-06-01T12:53:45;2.10;;;0.50;;
12861;SDS011;6499;66.348;14.134;2023-06-01T12:56:14;0.93;;;0.40;;
12861;SDS011;6499;66.348;14.134;2023-06-01T12:58:41;1.03;;;0.30;;
12861;SDS011;6499;66.348;14.134;2023-06-01T13:01:08;1.40;;;0.60;;
12861;SDS011;6499;66.348;14.134;2023-06-01T13:03:36;1.50;;;0.37;;
12861;SDS011;6499;66.348;14.134;2023-06-01T13:06:02;0.47;;;0.30;;
12861;SDS011;6499;66.348;14.134;2023-06-01T13:08:29;0.40;;;0.30;;
12861;SDS011;6499;66.348;14.134;2023-06-01T13:10:55;0.30;;;0.30;;
12861;SDS011;6499;66.348;14.134;2023-06-01T13:13:22;1.00;;;0.60;;
12861;SDS011;6499;66.348;14.134;2023-06-01T13:15:49;1.10;;;0.40;;
12861;SDS011;6499;66.348;14.134;2023-06-01T13:18:16;1.17;;;0.20;;
12861;SDS011;6499;66.348;14.134;2023-06-01T13:20:44;0.70;;;0.40;;
12861;SDS011;6499;66.348;14.134;2023-06-01T13:23:10;0.53;;;0.23;;
12861;SDS011;6499;66.348;14.134;2023-06-01T13:25:37;0.60;;;0.40;;
12861;SDS011;6499;66.348;14.134;2023-06-01T13:28:04;0.60;;;0.40;;
12861;SDS011;6499;66.348;14.134;2023-06-01T13:30:32;0.30;;;0.30;;
12861;SDS011;6499;66.348;14.134;2023-06-01T13:32:59;0.20;;;0.20;;
12861;SDS011;6499;66.348;14.134;2023-06-01T13:35:26;0.50;;;0.30;;
12861;SDS011;6499;66.348;14.134;2023-06-01T13:37:54;1.50;;;0.30;;
12861;SDS011;6499;66.348;14.134;2023-06-01T13:40:20;0.10;;;0.10;;
12861;SDS011;6499;66.348;14.134;2023-06-01T13:42:48;0.30;;;0.27;;
12861;SDS011;6499;66.348;14.134;2023-06-01T13:45:15;1.20;;;0.30;;
12861;SDS011;6499;66.348;14.134;2023-06-01T13:47:42;0.40;;;0.40;;
12861;SDS011;6499;66.348;14.134;2023-06-01T13:50:09;0.37;;;0.30;;
12861;SDS011;6499;66.348;14.134;2023-06-01T13:52:37;0.40;;;0.40;;
12861;SDS011;6499;66.348;14.134;2023-06-01T13:55:05;0.30;;;0.30;;
12861;SDS011;6499;66.348;14.134;2023-06-01T13:57:33;0.80;;;0.40;;
12861;SDS011;6499;66.348;14.134;2023-06-01T13:59:59;0.20;;;0.20;;
12861;SDS011;6499;66.348;14.134;2023-06-01T14:02:26;0.50;;;0.50;;
12861;SDS011;6499;66.348;14.134;2023-06-01T14:04:52;1.90;;;0.50;;
12861;SDS011;6499;66.348;14.134;2023-06-01T14:07:19;0.30;;;0.30;;
12861;SDS011;6499;66.348;14.134;2023-06-01T14:09:46;0.40;;;0.30;;
12861;SDS011;6499;66.348;14.134;2023-06-01T14:12:14;0.43;;;0.40;;
12861;SDS011;6499;66.348;14.134;2023-06-01T14:14:40;0.97;;;0.40;;
12861;SDS011;6499;66.348;14.134;2023-06-01T14:17:07;0.50;;;0.30;;
12861;SDS011;6499;66.348;14.134;2023-06-01T14:19:33;0.83;;;0.40;;
12861;SDS011;6499;66.348;14.134;2023-06-01T14:22:00;1.20;;;0.40;;
12861;SDS011;6499;66.348;14.134;2023-06-01T14:24:27;1.10;;;0.40;;
12861;SDS011;6499;66.348;14.134;2023-06-01T14:26:53;0.73;;;0.30;;
12861;SDS011;6499;66.348;14.134;2023-06-01T14:29:21;1.23;;;0.60;;
12861;SDS011;6499;66.348;14.134;2023-06-01T14:31:48;0.87;;;0.40;;
12861;SDS011;6499;66.348;14.134;2023-06-01T14:34:15;1.43;;;0.40;;
12861;SDS011;6499;66.348;14.134;2023-06-01T14:36:41;0.50;;;0.33;;
12861;SDS011;6499;66.348;14.134;2023-06-01T14:39:08;1.57;;;0.40;;
12861;SDS011;6499;66.348;14.134;2023-06-01T14:41:34;0.40;;;0.40;;
12861;SDS011;6499;66.348;14.134;2023-06-01T14:44:01;0.83;;;0.40;;
12861;SDS011;6499;66.348;14.134;2023-06-01T14:46:28;1.37;;;0.60;;
12861;SDS011;6499;66.348;14.134;2023-06-01T14:48:55;1.23;;;0.40;;
12861;SDS011;6499;66.348;14.134;2023-06-01T14:51:23;0.73;;;0.30;;
12861;SDS011;6499;66.348;14.134;2023-06-01T14:53:49;2.27;;;0.40;;
12861;SDS011;6499;66.348;14.134;2023-06-01T14:56:16;0.57;;;0.47;;
12861;SDS011;6499;66.348;14.134;2023-06-01T14:58:42;1.57;;;0.30;;
12861;SDS011;6499;66.348;14.134;2023-06-01T15:01:09;0.47;;;0.30;;
12861;SDS011;6499;66.348;14.134;2023-06-01T15:03:37;1.53;;;0.30;;
12861;SDS011;6499;66.348;14.134;2023-06-01T15:06:03;0.60;;;0.40;;